Time;durP1;ratioP1;P1;durP2;ratioP2;P2;SDS_P1;SDS_P2;PMS_P1;PMS_P2;Temp;Humidity;BMP_temperature;BMP_pressure;BME280_temperature;BME280_humidity;BME280_pressure;Samples;Min_cycle;Max_cycle;Signal;HPM_P1;HPM_P2
2021/05/24 00:00:30;;;;;;;6.97;2.60;;;;;;;8.82;75.56;101077.78;5036171;28;20604;-70
2021/05/24 00:02:56;;;;;;;6.90;2.50;;;;;;;8.73;75.79;101083.50;5037291;28;20275;-70
2021/05/24 00:05:25;;;;;;;3.33;2.50;;;;;;;8.67;76.39;101083.75;5035494;28;20172;-70
2021/05/24 00:07:51;;;;;;;2.67;2.27;;;;;;;8.62;76.33;101083.94;5035488;28;20545;-70
2021/05/24 00:10:21;;;;;;;4.73;2.67;;;;;;;8.57;76.36;101083.25;5036003;28;20183;-70
2021/05/24 00:12:47;;;;;;;5.00;2.33;;;;;;;8.53;76.20;101083.41;5035212;28;20330;-70
2021/05/24 00:15:15;;;;;;;3.47;2.30;;;;;;;8.47;76.10;101076.56;5035391;28;20200;-69
2021/05/24 00:17:41;;;;;;;4.53;3.03;;;;;;;8.37;76.67;101084.03;5035304;28;20263;-70
2021/05/24 00:20:07;;;;;;;4.23;2.83;;;;;;;8.32;76.35;101077.16;5037553;28;20198;-70
2021/05/24 00:22:32;;;;;;;4.40;2.63;;;;;;;8.27;76.80;101076.47;5036765;28;20207;-70
2021/05/24 00:24:57;;;;;;;4.90;3.77;;;;;;;8.19;77.15;101081.22;5036574;28;20675;-69
2021/05/24 00:27:23;;;;;;;4.40;2.30;;;;;;;8.14;77.18;101063.63;5036257;28;20188;-69
2021/05/24 00:29:48;;;;;;;3.60;2.70;;;;;;;8.13;77.76;101061.03;5036335;28;20184;-70
2021/05/24 00:32:13;;;;;;;5.70;2.70;;;;;;;8.25;77.48;101067.69;5036018;28;20691;-70
2021/05/24 00:34:38;;;;;;;5.87;2.53;;;;;;;8.24;77.10;101060.63;5034832;28;20234;-70
2021/05/24 00:37:04;;;;;;;4.77;2.60;;;;;;;8.26;77.03;101067.63;5035152;28;20241;-70
2021/05/24 00:39:29;;;;;;;4.23;2.67;;;;;;;8.20;77.04;101062.56;5018228;28;20192;-70
2021/05/24 00:41:55;;;;;;;5.23;2.60;;;;;;;8.19;77.09;101062.63;5035876;28;20172;-70
2021/05/24 00:44:22;;;;;;;4.27;2.57;;;;;;;8.16;76.96;101066.22;5036636;28;20221;-70
2021/05/24 00:46:47;;;;;;;4.60;2.63;;;;;;;8.14;77.12;101065.44;5036592;28;20176;-70
2021/05/24 00:49:13;;;;;;;4.23;2.50;;;;;;;8.15;77.14;101059.19;5036871;28;20183;-69
2021/05/24 00:51:38;;;;;;;3.93;2.73;;;;;;;8.18;77.05;101063.50;5036243;28;20204;-69
2021/05/24 00:54:04;;;;;;;4.87;2.47;;;;;;;8.20;76.68;101062.56;5036117;28;20195;-69
2021/05/24 00:56:29;;;;;;;5.20;2.53;;;;;;;8.21;76.90;101061.63;5035831;28;20206;-69
2021/05/24 00:58:55;;;;;;;4.13;2.53;;;;;;;8.15;77.23;101064.50;5034208;28;20219;-69
2021/05/24 01:01:20;;;;;;;6.10;2.40;;;;;;;8.16;77.19;101050.28;5034362;28;20708;-69
2021/05/24 01:03:45;;;;;;;2.93;2.27;;;;;;;8.13;76.85;101059.25;5034961;28;20200;-69
2021/05/24 01:06:11;;;;;;;3.77;2.50;;;;;;;8.10;77.17;101047.88;5035712;28;20215;-69
2021/05/24 01:08:36;;;;;;;3.00;2.17;;;;;;;8.11;77.47;101057.56;5034085;28;20179;-69
2021/05/24 01:11:02;;;;;;;5.00;2.67;;;;;;;8.14;77.37;101049.47;5034335;28;20214;-69
2021/05/24 01:13:27;;;;;;;3.30;2.33;;;;;;;8.12;77.18;101043.34;5034074;28;20629;-69
2021/05/24 01:15:52;;;;;;;3.07;2.53;;;;;;;8.10;77.55;101042.56;5034082;28;20541;-69
2021/05/24 01:18:18;;;;;;;4.97;2.57;;;;;;;8.18;77.26;101042.25;5033994;28;20628;-69
2021/05/24 01:20:43;;;;;;;4.63;2.40;;;;;;;8.13;77.32;101045.94;5034329;28;20184;-69
2021/05/24 01:23:11;;;;;;;3.83;2.67;;;;;;;8.12;77.32;101040.69;5033883;28;20340;-69
2021/05/24 01:25:39;;;;;;;4.00;2.43;;;;;;;8.07;77.85;101037.34;5034222;28;20180;-69
2021/05/24 01:28:06;;;;;;;3.50;2.40;;;;;;;8.06;77.76;101036.50;5033755;28;20184;-69
2021/05/24 01:30:32;;;;;;;9.13;2.73;;;;;;;8.02;77.84;101024.25;5033975;28;20660;-69
2021/05/24 01:32:57;;;;;;;3.40;2.57;;;;;;;7.99;78.04;101034.13;5033631;28;20200;-69
2021/05/24 01:35:23;;;;;;;7.63;2.70;;;;;;;8.13;77.42;101032.66;5034973;28;20254;-69
2021/05/24 01:37:48;;;;;;;3.47;2.90;;;;;;;8.25;76.61;101034.00;5033724;28;20207;-69
2021/05/24 01:40:14;;;;;;;5.73;3.10;;;;;;;8.18;77.22;101026.28;5033981;28;20179;-69
2021/05/24 01:42:40;;;;;;;3.70;2.40;;;;;;;8.03;77.71;101022.47;5034713;28;20184;-68
2021/05/24 01:45:06;;;;;;;11.03;2.83;;;;;;;8.17;77.63;101022.75;5016993;28;20168;-69
2021/05/24 01:47:32;;;;;;;8.57;4.53;;;;;;;8.01;77.73;101016.34;5034624;28;20656;-68
2021/05/24 01:49:57;;;;;;;4.63;2.53;;;;;;;7.90;78.40;101010.59;5035588;28;20179;-69
2021/05/24 01:52:23;;;;;;;3.97;2.80;;;;;;;7.96;78.16;101011.22;5034067;28;20587;-69
2021/05/24 01:54:48;;;;;;;6.27;2.87;;;;;;;7.87;78.48;101014.22;5033896;28;20655;-68
2021/05/24 01:57:14;;;;;;;5.07;2.90;;;;;;;7.72;79.37;101012.16;5033572;28;20544;-70
2021/05/24 01:59:40;;;;;;;4.83;2.73;;;;;;;7.65;79.79;101010.66;5016620;28;20183;-70
2021/05/24 02:02:06;;;;;;;6.83;2.77;;;;;;;7.66;79.78;101015.03;5016495;28;20183;-70
2021/05/24 02:04:31;;;;;;;6.87;2.90;;;;;;;7.66;79.24;101009.72;5032856;28;20676;-68
2021/05/24 02:06:58;;;;;;;4.60;2.63;;;;;;;7.72;79.29;101006.84;5032877;28;20177;-69
2021/05/24 02:09:24;;;;;;;6.07;2.97;;;;;;;7.76;79.11;101009.31;5035100;28;20176;-70
2021/05/24 02:11:49;;;;;;;8.03;2.73;;;;;;;7.82;78.67;101008.22;5033598;28;20215;-69
2021/05/24 02:14:15;;;;;;;9.03;2.70;;;;;;;7.82;78.69;101006.44;5032399;28;20549;-69
2021/05/24 02:16:42;;;;;;;6.50;3.27;;;;;;;7.86;78.39;101008.97;5033552;28;20545;-69
2021/05/24 02:19:09;;;;;;;5.40;2.77;;;;;;;7.85;78.73;101005.44;5033009;28;20186;-69
2021/05/24 02:21:35;;;;;;;5.10;2.67;;;;;;;7.80;78.29;101010.06;5032948;28;20172;-69
2021/05/24 02:24:00;;;;;;;4.67;2.93;;;;;;;7.87;78.34;101010.72;5016086;28;20222;-69
2021/05/24 02:26:25;;;;;;;3.17;2.80;;;;;;;7.82;78.54;101008.22;5033839;28;20244;-69
2021/05/24 02:28:51;;;;;;;6.27;3.10;;;;;;;7.83;78.64;101010.84;5033787;28;20176;-69
2021/05/24 02:31:16;;;;;;;4.33;3.40;;;;;;;7.74;78.50;101003.19;5032460;28;20203;-69
2021/05/24 02:33:41;;;;;;;5.90;3.20;;;;;;;7.83;78.24;101005.50;5032388;28;20274;-69
2021/05/24 02:36:07;;;;;;;3.47;3.10;;;;;;;8.00;77.17;101012.81;5033984;28;20184;-69
2021/05/24 02:38:32;;;;;;;4.60;3.00;;;;;;;8.03;77.19;101010.03;5032341;28;20257;-69
2021/05/24 02:40:57;;;;;;;4.60;3.17;;;;;;;7.94;77.46;101005.09;5033779;28;20238;-69
2021/05/24 02:43:23;;;;;;;9.60;3.20;;;;;;;8.00;77.76;101006.63;5033277;28;20207;-68
2021/05/24 02:45:49;;;;;;;6.10;2.90;;;;;;;8.04;77.23;101003.78;5033812;28;20184;-69
2021/05/24 02:48:14;;;;;;;5.00;2.80;;;;;;;8.02;76.95;101000.31;5035276;28;20259;-69
2021/05/24 02:50:40;;;;;;;5.13;3.23;;;;;;;7.93;77.60;100986.53;5032560;28;20764;-69
2021/05/24 02:53:05;;;;;;;4.33;2.50;;;;;;;7.86;78.10;100993.03;5033706;28;20278;-69
2021/05/24 02:55:31;;;;;;;5.60;3.00;;;;;;;7.69;78.67;100986.56;5033612;28;20176;-69
2021/05/24 02:57:56;;;;;;;4.83;3.00;;;;;;;7.74;78.77;100991.69;5015596;28;20577;-69
2021/05/24 03:00:24;;;;;;;3.60;2.80;;;;;;;7.72;78.59;100990.88;5033571;28;20632;-69
2021/05/24 03:02:50;;;;;;;5.03;2.93;;;;;;;7.66;79.17;100996.44;5033263;28;20206;-69
2021/05/24 03:05:21;;;;;;;6.13;3.23;;;;;;;7.80;78.86;100997.66;5032108;28;20171;-69
2021/05/24 03:07:47;;;;;;;4.10;2.80;;;;;;;7.82;78.91;100986.97;5031953;28;20176;-68
2021/05/24 03:10:14;;;;;;;6.37;3.30;;;;;;;7.77;78.76;100987.13;5031850;28;20267;-68
2021/05/24 03:12:40;;;;;;;4.33;3.20;;;;;;;7.81;79.07;100991.41;5033479;28;20587;-69
2021/05/24 03:15:06;;;;;;;5.30;2.97;;;;;;;7.94;78.43;101001.56;5032163;28;20270;-69
2021/05/24 03:17:31;;;;;;;4.33;2.97;;;;;;;7.98;78.28;100998.72;5031798;28;20184;-69
2021/05/24 03:19:56;;;;;;;5.07;3.00;;;;;;;8.08;78.09;101001.88;5033757;28;20624;-69
2021/05/24 03:22:22;;;;;;;3.77;3.13;;;;;;;8.12;77.84;101001.69;5033196;28;20513;-69
2021/05/24 03:24:47;;;;;;;3.40;2.90;;;;;;;8.12;77.95;100999.03;5031582;28;20230;-69
2021/05/24 03:27:12;;;;;;;4.27;3.00;;;;;;;8.17;78.31;101001.50;5031551;28;20188;-69
2021/05/24 03:29:37;;;;;;;5.07;3.10;;;;;;;8.20;78.30;100992.56;5033055;28;20189;-69
2021/05/24 03:32:03;;;;;;;4.23;2.80;;;;;;;8.11;78.13;100991.97;5031677;28;20207;-69
2021/05/24 03:34:28;;;;;;;7.43;3.30;;;;;;;7.98;78.90;100988.09;5031512;28;20207;-69
2021/05/24 03:36:54;;;;;;;3.97;3.10;;;;;;;7.98;79.14;100995.19;5032734;28;20195;-69
2021/05/24 03:39:20;;;;;;;5.77;3.37;;;;;;;7.91;79.46;101002.56;5032888;28;20180;-69
2021/05/24 03:41:45;;;;;;;4.67;3.03;;;;;;;7.79;80.81;101009.19;5031626;28;20201;-69
2021/05/24 03:44:11;;;;;;;4.47;3.17;;;;;;;7.86;80.37;100999.22;5037514;22;20286;-71
2021/05/24 03:46:36;;;;;;;5.73;3.13;;;;;;;7.94;80.21;101001.56;5013419;28;20276;-74
2021/05/24 03:49:02;;;;;;;7.77;3.27;;;;;;;7.97;79.81;101002.31;5012979;28;20184;-72
2021/05/24 03:51:27;;;;;;;3.53;3.10;;;;;;;8.04;80.22;101001.13;4995260;28;20209;-72
2021/05/24 03:53:53;;;;;;;5.03;3.40;;;;;;;8.06;79.98;101001.94;4979041;28;20208;-73
2021/05/24 03:56:19;;;;;;;4.10;3.07;;;;;;;8.06;80.33;101003.72;4995417;28;20534;-71
2021/05/24 03:58:44;;;;;;;5.23;3.30;;;;;;;8.13;80.02;101010.53;4995627;28;20176;-71
2021/05/24 04:01:10;;;;;;;5.10;3.80;;;;;;;8.16;79.73;101005.94;4995541;28;20235;-72
2021/05/24 04:03:35;;;;;;;4.87;3.20;;;;;;;8.20;79.66;101008.50;4995402;28;20204;-72
2021/05/24 04:06:03;;;;;;;3.83;3.30;;;;;;;8.36;79.05;101010.50;5012834;28;20173;-72
2021/05/24 04:08:33;;;;;;;5.50;3.00;;;;;;;8.60;78.33;101013.09;4979247;28;20256;-71
2021/05/24 04:11:00;;;;;;;5.20;2.60;;;;;;;8.72;77.36;101015.22;4979685;28;20233;-72
2021/05/24 04:13:25;;;;;;;5.17;3.23;;;;;;;8.54;78.29;101013.31;5012718;28;20653;-72
2021/05/24 04:15:52;;;;;;;3.10;2.80;;;;;;;8.41;79.03;101026.28;4995497;28;20181;-72
2021/05/24 04:18:20;;;;;;;5.23;3.20;;;;;;;8.35;79.30;101019.41;5012793;28;20173;-72
2021/05/24 04:20:46;;;;;;;3.90;3.10;;;;;;;8.33;79.80;101015.06;4995594;28;20169;-73
2021/05/24 04:23:13;;;;;;;4.80;3.27;;;;;;;8.33;79.79;101020.38;4995337;28;20268;-73
2021/05/24 04:25:38;;;;;;;5.20;2.97;;;;;;;8.36;79.77;101013.16;5012742;28;20177;-74
2021/05/24 04:28:04;;;;;;;5.60;3.23;;;;;;;8.37;79.86;101012.25;5013057;28;20538;-72
2021/05/24 04:30:29;;;;;;;4.83;3.20;;;;;;;8.41;79.19;101008.53;5013575;28;20252;-73
2021/05/24 04:32:54;;;;;;;6.47;3.13;;;;;;;8.43;79.46;101016.44;4995880;28;20614;-72
2021/05/24 04:35:20;;;;;;;5.70;2.73;;;;;;;8.42;79.69;101014.69;4978964;28;20209;-72
2021/05/24 04:37:45;;;;;;;6.47;3.50;;;;;;;8.48;79.33;101013.59;4995231;28;20177;-72
2021/05/24 04:40:11;;;;;;;2.73;2.53;;;;;;;8.61;78.68;101009.50;4998818;28;20177;-72
2021/05/24 04:42:37;;;;;;;3.80;3.10;;;;;;;8.75;77.69;101007.13;4982235;28;20185;-73
2021/05/24 04:45:02;;;;;;;4.60;3.13;;;;;;;8.73;78.52;100995.66;5016299;28;20275;-74
2021/05/24 04:47:28;;;;;;;6.63;3.23;;;;;;;8.82;77.86;101000.59;5016939;28;20216;-72
2021/05/24 04:49:53;;;;;;;3.67;2.90;;;;;;;8.92;77.21;101004.63;5000719;28;20246;-73
2021/05/24 04:52:18;;;;;;;4.53;3.03;;;;;;;9.07;77.19;101003.06;5020030;28;20760;-73
2021/05/24 04:54:44;;;;;;;4.03;3.10;;;;;;;9.26;76.70;101001.31;5000593;28;20211;-73
2021/05/24 04:57:11;;;;;;;4.30;3.10;;;;;;;9.24;76.45;101005.84;4999334;28;20265;-73
2021/05/24 04:59:37;;;;;;;4.50;2.90;;;;;;;9.35;75.43;101006.25;4999263;28;20181;-74
2021/05/24 05:02:02;;;;;;;3.00;2.63;;;;;;;9.49;75.69;101002.06;5016497;28;20176;-73
2021/05/24 05:04:28;;;;;;;3.60;2.50;;;;;;;9.76;75.01;101002.59;4998335;28;20205;-73
2021/05/24 05:06:55;;;;;;;4.27;2.63;;;;;;;9.67;75.01;100999.44;5015763;28;20656;-73
2021/05/24 05:09:20;;;;;;;3.70;2.60;;;;;;;9.78;74.92;100993.59;4998604;28;20177;-72
2021/05/24 05:11:46;;;;;;;4.13;2.93;;;;;;;9.93;74.16;100992.88;4998567;28;20207;-73
2021/05/24 05:14:11;;;;;;;4.93;2.40;;;;;;;10.17;74.43;100987.28;4998867;28;20193;-73
2021/05/24 05:16:36;;;;;;;3.83;2.30;;;;;;;10.17;74.03;100990.84;5016597;28;20173;-73
2021/05/24 05:19:02;;;;;;;4.00;2.47;;;;;;;10.41;73.30;100983.47;4982024;28;20169;-73
2021/05/24 05:21:27;;;;;;;4.43;2.53;;;;;;;10.50;72.81;100984.81;4998082;28;20215;-73
2021/05/24 05:23:52;;;;;;;3.60;2.27;;;;;;;10.41;72.33;100979.94;4997872;28;20191;-73
2021/05/24 05:26:17;;;;;;;4.27;2.53;;;;;;;10.45;71.99;100981.50;5015237;28;20180;-74
2021/05/24 05:28:43;;;;;;;3.90;2.37;;;;;;;10.53;72.18;100984.66;4981433;28;20184;-74
2021/05/24 05:31:08;;;;;;;4.30;2.40;;;;;;;10.59;71.64;100997.69;5015617;28;20209;-74
2021/05/24 05:33:33;;;;;;;2.40;2.00;;;;;;;10.61;72.20;100993.13;4997696;28;20196;-73
2021/05/24 05:35:59;;;;;;;3.67;2.33;;;;;;;10.84;71.05;100990.16;5015440;28;20173;-74
2021/05/24 05:38:25;;;;;;;2.67;2.07;;;;;;;10.74;71.55;101004.03;4997693;28;20177;-73
2021/05/24 05:40:52;;;;;;;3.60;2.47;;;;;;;10.87;71.38;100994.47;4998284;28;20177;-73
2021/05/24 05:43:17;;;;;;;3.37;2.27;;;;;;;10.93;71.28;101008.38;5014970;28;20212;-73
2021/05/24 05:45:43;;;;;;;3.40;2.30;;;;;;;10.93;71.13;101007.50;4997214;28;20198;-74
2021/05/24 05:48:09;;;;;;;2.60;2.20;;;;;;;11.09;70.99;101007.56;4980873;28;20177;-73
2021/05/24 05:50:34;;;;;;;2.10;1.90;;;;;;;11.34;70.89;100991.97;4997493;28;20173;-73
2021/05/24 05:52:59;;;;;;;3.23;2.33;;;;;;;11.20;70.39;101005.22;4997199;28;20707;-73
2021/05/24 05:55:25;;;;;;;3.93;2.07;;;;;;;11.33;70.90;101002.75;4997287;28;20185;-73
2021/05/24 05:57:50;;;;;;;2.53;2.00;;;;;;;11.28;69.63;101003.00;4997057;28;20205;-72
2021/05/24 06:00:16;;;;;;;2.10;1.83;;;;;;;11.36;69.11;101008.78;4997275;28;20665;-74
2021/05/24 06:02:42;;;;;;;3.00;2.03;;;;;;;11.40;68.73;101006.81;4996887;28;20223;-73
2021/05/24 06:05:07;;;;;;;3.33;1.90;;;;;;;11.58;68.75;101009.38;4997077;28;20235;-73
2021/05/24 06:07:33;;;;;;;2.07;1.73;;;;;;;11.55;68.60;101009.53;4997260;28;20191;-73
2021/05/24 06:09:58;;;;;;;3.43;1.93;;;;;;;11.68;67.50;101003.53;5014596;28;20177;-73
2021/05/24 06:12:23;;;;;;;2.20;1.80;;;;;;;11.66;68.61;101005.41;4996873;28;20268;-73
2021/05/24 06:14:48;;;;;;;2.37;1.70;;;;;;;11.82;68.02;101007.19;4996579;28;20196;-73
2021/05/24 06:17:14;;;;;;;1.93;1.63;;;;;;;11.85;67.92;101011.50;5014751;28;20204;-73
2021/05/24 06:19:39;;;;;;;2.67;1.70;;;;;;;11.85;68.12;101014.16;4996807;28;20255;-72
2021/05/24 06:22:04;;;;;;;2.30;1.63;;;;;;;11.92;67.50;101018.25;4996825;28;20179;-72
2021/05/24 06:24:30;;;;;;;2.13;1.87;;;;;;;12.00;66.66;101013.34;4996759;28;20700;-71
2021/05/24 06:26:55;;;;;;;2.43;1.57;;;;;;;12.15;66.81;101009.78;5014604;28;20181;-72
2021/05/24 06:29:26;;;;;;;2.60;1.70;;;;;;;12.33;66.06;101017.75;4981044;28;20180;-72
2021/05/24 06:31:53;;;;;;;3.23;1.67;;;;;;;12.48;65.72;101020.38;4997694;28;20675;-72
2021/05/24 06:34:19;;;;;;;3.37;1.50;;;;;;;12.62;64.49;101013.34;4996795;28;20222;-74
2021/05/24 06:36:44;;;;;;;3.03;1.20;;;;;;;12.56;63.22;101009.22;4996597;28;20255;-73
2021/05/24 06:39:10;;;;;;;2.77;1.43;;;;;;;12.47;63.92;100999.91;5014276;28;20169;-72
2021/05/24 06:41:35;;;;;;;2.70;1.30;;;;;;;12.55;63.52;101006.63;5014347;28;20168;-72
2021/05/24 06:44:01;;;;;;;2.37;1.37;;;;;;;12.61;63.33;101019.66;4996754;28;20345;-72
2021/05/24 06:46:26;;;;;;;1.83;1.40;;;;;;;12.60;63.10;101009.91;4996941;28;20176;-73
2021/05/24 06:48:51;;;;;;;2.43;1.37;;;;;;;12.83;63.52;101017.47;4996677;28;20596;-73
2021/05/24 06:51:17;;;;;;;4.83;1.40;;;;;;;13.02;62.24;101017.25;5014208;28;20601;-73
2021/05/24 06:53:43;;;;;;;4.23;1.40;;;;;;;13.21;61.87;101003.59;4996562;28;20196;-73
2021/05/24 06:56:08;;;;;;;3.90;1.43;;;;;;;13.28;62.15;101004.94;5014178;28;20181;-72
2021/05/24 06:58:33;;;;;;;1.33;1.20;;;;;;;13.43;59.96;101002.22;5014155;28;20204;-73
2021/05/24 07:00:59;;;;;;;2.57;1.33;;;;;;;13.43;60.69;100991.47;4996000;28;20173;-73
2021/05/24 07:03:24;;;;;;;3.10;1.37;;;;;;;13.51;60.98;100993.69;5014246;28;20197;-73
2021/05/24 07:05:49;;;;;;;4.30;1.10;;;;;;;13.75;60.63;100988.56;4996859;28;20544;-73
2021/05/24 07:08:15;;;;;;;3.60;1.33;;;;;;;13.84;59.69;100990.69;5014649;28;20177;-72
2021/05/24 07:10:40;;;;;;;2.07;1.27;;;;;;;14.02;59.35;101004.72;5014566;28;20251;-73
2021/05/24 07:13:05;;;;;;;1.70;0.97;;;;;;;13.80;57.62;100988.31;4980378;28;20641;-73
2021/05/24 07:15:30;;;;;;;2.17;1.10;;;;;;;13.84;58.62;100995.19;4996723;28;20173;-73
2021/05/24 07:17:56;;;;;;;2.93;1.67;;;;;;;13.87;58.24;101001.22;4996482;28;20173;-73
2021/05/24 07:20:21;;;;;;;1.33;1.07;;;;;;;14.03;58.69;100983.16;4979930;28;20181;-74
2021/05/24 07:22:47;;;;;;;3.20;1.20;;;;;;;14.28;56.45;100985.13;5014601;28;20169;-73
2021/05/24 07:25:13;;;;;;;1.10;0.90;;;;;;;14.32;56.94;100991.13;4996576;28;20225;-72
2021/05/24 07:27:38;;;;;;;1.40;1.20;;;;;;;14.54;57.65;100993.31;4995927;28;20181;-71
2021/05/24 07:30:04;;;;;;;1.73;1.10;;;;;;;14.35;55.96;100991.78;4996675;28;20172;-72
2021/05/24 07:32:29;;;;;;;1.03;0.93;;;;;;;14.26;56.32;100980.81;4995800;28;20204;-72
2021/05/24 07:34:54;;;;;;;1.83;1.23;;;;;;;14.56;55.91;100983.31;5013393;28;20699;-72
2021/05/24 07:37:20;;;;;;;1.47;0.97;;;;;;;14.59;55.93;100977.75;4979655;28;20733;-73
2021/05/24 07:39:45;;;;;;;1.77;1.23;;;;;;;14.69;54.71;100977.00;5013520;28;20200;-74
2021/05/24 07:42:10;;;;;;;2.63;1.00;;;;;;;14.97;52.75;100969.75;4995641;28;20173;-74
2021/05/24 07:44:36;;;;;;;2.73;0.80;;;;;;;15.04;52.72;100972.88;4979357;28;20208;-73
2021/05/24 07:47:02;;;;;;;1.60;0.93;;;;;;;14.88;50.60;100965.88;4995776;28;20187;-73
2021/05/24 07:49:27;;;;;;;1.40;0.90;;;;;;;14.62;51.42;100966.78;4995884;28;20180;-73
2021/05/24 07:51:53;;;;;;;1.47;0.73;;;;;;;14.80;51.86;100964.66;5013376;28;20197;-73
2021/05/24 07:54:19;;;;;;;3.83;0.87;;;;;;;15.04;51.05;100957.59;4979117;28;20250;-73
2021/05/24 07:56:44;;;;;;;1.27;0.83;;;;;;;15.24;52.75;100964.31;4980146;28;20667;-74
2021/05/24 07:59:10;;;;;;;2.03;1.00;;;;;;;15.49;52.54;100934.69;5014230;28;20745;-75
2021/05/24 08:01:36;;;;;;;1.20;0.80;;;;;;;15.21;48.68;100941.16;4980672;28;20216;-73
2021/05/24 08:04:01;;;;;;;2.30;0.93;;;;;;;15.04;50.17;100933.41;4996387;28;20612;-72
2021/05/24 08:06:27;;;;;;;2.53;0.97;;;;;;;15.17;50.13;100945.03;5014061;28;20173;-72
2021/05/24 08:08:52;;;;;;;1.20;0.73;;;;;;;15.18;48.76;100953.94;5014279;28;20180;-73
2021/05/24 08:11:17;;;;;;;2.00;0.83;;;;;;;15.29;48.73;100960.31;5014334;28;20734;-73
2021/05/24 08:13:43;;;;;;;3.30;0.93;;;;;;;15.20;49.94;100947.50;5016048;28;20283;-73
2021/05/24 08:16:12;;;;;;;3.63;0.77;;;;;;;15.31;49.86;100946.75;4986357;28;20308;-73
2021/05/24 08:18:38;;;;;;;4.83;0.90;;;;;;;15.82;49.81;100950.25;5020219;28;20165;-73
2021/05/24 08:21:04;;;;;;;3.07;0.97;;;;;;;16.01;47.63;100938.16;5000733;28;20219;-73
2021/05/24 08:23:30;;;;;;;1.23;0.87;;;;;;;15.45;49.18;100924.25;5000819;28;20239;-73
2021/05/24 08:25:55;;;;;;;0.73;0.67;;;;;;;15.65;47.74;100928.25;5017833;28;20634;-73
2021/05/24 08:28:20;;;;;;;4.43;0.90;;;;;;;15.73;47.72;100928.53;5000410;28;20179;-73
2021/05/24 08:30:46;;;;;;;6.40;0.80;;;;;;;16.01;47.78;100922.00;5018068;28;20205;-74
2021/05/24 08:33:11;;;;;;;1.00;0.70;;;;;;;15.85;46.64;100923.09;5017601;28;20169;-73
2021/05/24 08:35:36;;;;;;;1.97;0.80;;;;;;;15.85;47.00;100917.72;5017584;28;20580;-74
2021/05/24 08:38:02;;;;;;;0.83;0.70;;;;;;;15.97;45.08;100925.84;5001025;28;20176;-74
2021/05/24 08:40:28;;;;;;;5.80;0.97;;;;;;;15.89;44.43;100916.53;4984349;28;20204;-73
2021/05/24 08:42:58;;;;;;;1.90;0.70;;;;;;;16.03;44.92;100909.28;4984337;28;20201;-74
2021/05/24 08:45:26;;;;;;;1.57;0.70;;;;;;;16.09;46.03;100919.59;5000946;28;20205;-75
2021/05/24 08:47:51;;;;;;;1.67;0.80;;;;;;;16.25;45.98;100914.75;5000886;28;20169;-72
2021/05/24 08:50:17;;;;;;;1.27;1.00;;;;;;;16.48;45.47;100921.97;5018581;28;20638;-73
2021/05/24 08:52:43;;;;;;;3.07;0.63;;;;;;;16.07;45.93;100918.84;4983689;28;20208;-74
2021/05/24 08:55:10;;;;;;;4.83;0.90;;;;;;;16.04;44.81;100917.25;5005268;28;20279;-74
2021/05/24 08:57:37;;;;;;;0.80;0.50;;;;;;;15.95;44.51;100918.75;5027014;28;20223;-74
2021/05/24 09:00:05;;;;;;;1.37;1.00;;;;;;;16.25;42.57;100898.59;5007923;28;20219;-74
2021/05/24 09:02:30;;;;;;;1.30;1.03;;;;;;;16.00;43.25;100896.91;5005044;28;20621;-75
2021/05/24 09:05:03;;;;;;;1.77;0.70;;;;;;;16.17;42.21;100904.56;5002993;28;20195;-73
2021/05/24 09:07:28;;;;;;;1.23;0.70;;;;;;;16.33;41.45;100898.88;4984734;28;20549;-75
2021/05/24 09:10:04;;;;;;;2.97;0.80;;;;;;;16.50;40.82;100886.81;4999669;28;20173;-72
2021/05/24 09:12:33;;;;;;;1.00;0.50;;;;;;;16.78;40.00;100880.22;4999043;28;20200;-73
2021/05/24 09:15:03;;;;;;;1.37;0.60;;;;;;;16.31;40.32;100895.44;5016332;28;20188;-73
2021/05/24 09:17:50;;;;;;;3.40;0.70;;;;;;;17.09;40.34;100898.34;4998730;28;20238;-74
2021/05/24 09:20:24;;;;;;;0.90;0.63;;;;;;;16.79;40.84;100877.38;5016794;28;20161;-73
2021/05/24 09:23:15;;;;;;;1.63;0.60;;;;;;;17.11;40.92;100874.00;5016547;28;20247;-73
2021/05/24 09:25:57;;;;;;;1.10;0.60;;;;;;;17.31;38.41;100889.44;5016360;28;20211;-74
2021/05/24 09:28:37;;;;;;;2.37;0.90;;;;;;;17.26;39.64;100874.59;4983024;28;20173;-74
2021/05/24 09:31:09;;;;;;;4.20;1.03;;;;;;;17.21;40.17;100874.97;4998964;28;20553;-73
2021/05/24 09:33:36;;;;;;;1.50;0.80;;;;;;;17.34;40.82;100889.19;5016582;28;20255;-73
2021/05/24 09:36:03;;;;;;;0.77;0.70;;;;;;;17.59;40.78;100888.06;5016393;28;20177;-74
2021/05/24 09:38:33;;;;;;;2.03;0.90;;;;;;;17.15;40.87;100862.84;5016934;28;20177;-74
2021/05/24 09:40:59;;;;;;;1.97;0.80;;;;;;;17.31;41.34;100864.28;4999007;28;20219;-75
2021/05/24 09:46:37;;;;;;;1.50;0.60;;;;;;;17.91;39.30;100882.78;5056907;22;20227;-70
2021/05/24 09:49:03;;;;;;;1.20;0.67;;;;;;;17.31;40.20;100869.69;4982200;28;20184;-70
2021/05/24 09:51:30;;;;;;;3.73;0.60;;;;;;;17.47;41.24;100872.88;4998233;28;20573;-70
2021/05/24 09:54:01;;;;;;;2.33;0.90;;;;;;;17.86;39.41;100865.25;4998177;28;20549;-71
2021/05/24 09:56:28;;;;;;;1.00;0.50;;;;;;;17.60;39.65;100853.84;5035843;28;20161;-70
2021/05/24 09:58:59;;;;;;;3.87;0.77;;;;;;;18.21;37.70;100856.84;5034672;28;20172;-70
2021/05/24 10:01:31;;;;;;;1.20;0.67;;;;;;;18.35;37.35;100859.28;5034931;28;20164;-70
2021/05/24 10:03:57;;;;;;;2.30;0.80;;;;;;;18.03;37.99;100849.34;5033452;28;20196;-70
2021/05/24 10:06:23;;;;;;;1.33;0.60;;;;;;;17.68;38.96;100846.84;5033317;28;20172;-70
2021/05/24 10:08:49;;;;;;;0.73;0.50;;;;;;;17.57;40.04;100851.41;5033044;28;20271;-70
2021/05/24 10:11:15;;;;;;;1.83;0.80;;;;;;;17.55;39.96;100843.44;5034251;28;20320;-71
2021/05/24 10:13:40;;;;;;;2.43;0.63;;;;;;;17.43;39.18;100830.91;5018738;28;20640;-70
2021/05/24 10:16:11;;;;;;;1.70;0.67;;;;;;;17.59;39.03;100857.53;5035061;28;20188;-70
2021/05/24 10:18:36;;;;;;;1.50;0.40;;;;;;;17.67;38.65;100844.28;5035597;28;20180;-71
2021/05/24 10:21:02;;;;;;;2.77;0.70;;;;;;;18.03;38.96;100843.06;5017965;28;20656;-70
2021/05/24 10:23:28;;;;;;;1.77;0.80;;;;;;;18.13;38.65;100842.16;5016467;28;20633;-71
2021/05/24 10:25:57;;;;;;;3.43;0.80;;;;;;;17.53;38.25;100837.31;5032663;28;20203;-70
2021/05/24 10:28:24;;;;;;;3.23;0.80;;;;;;;18.23;37.26;100836.00;5034128;28;20172;-69
2021/05/24 10:30:49;;;;;;;2.47;0.80;;;;;;;18.62;37.44;100840.72;5032685;28;20223;-70
2021/05/24 10:33:15;;;;;;;1.80;0.70;;;;;;;17.69;37.29;100829.69;5017082;28;20620;-70
2021/05/24 10:35:45;;;;;;;2.40;0.70;;;;;;;17.96;36.78;100853.53;5031831;28;20191;-69
2021/05/24 10:38:30;;;;;;;4.03;0.60;;;;;;;17.92;37.97;100825.09;5032614;28;20517;-70
2021/05/24 10:41:07;;;;;;;1.50;0.67;;;;;;;18.28;37.34;100812.16;5033992;28;20168;-71
2021/05/24 10:43:43;;;;;;;2.97;0.70;;;;;;;18.87;36.90;100811.53;5032893;28;20176;-70
2021/05/24 10:46:27;;;;;;;1.40;0.70;;;;;;;19.01;35.29;100809.34;5033961;28;20317;-70
2021/05/24 10:48:55;;;;;;;0.83;0.60;;;;;;;19.05;34.87;100801.81;5033839;28;20184;-70
2021/05/24 10:51:20;;;;;;;1.53;0.60;;;;;;;19.00;35.37;100817.59;5016930;28;20282;-70
2021/05/24 10:53:49;;;;;;;0.63;0.50;;;;;;;18.55;35.41;100804.34;5033078;28;20857;-70
2021/05/24 10:56:21;;;;;;;3.63;0.90;;;;;;;19.15;34.33;100805.41;5033279;28;20164;-70
2021/05/24 10:58:46;;;;;;;2.23;0.60;;;;;;;19.62;33.60;100795.72;5033152;28;20540;-70
2021/05/24 11:01:12;;;;;;;2.63;0.60;;;;;;;20.97;31.52;100802.88;5035363;28;20169;-70
2021/05/24 11:03:43;;;;;;;2.13;0.70;;;;;;;21.59;30.53;100786.88;5050331;28;20173;-70
2021/05/24 11:06:13;;;;;;;3.67;0.60;;;;;;;22.50;29.66;100774.81;5054989;28;20243;-71
2021/05/24 11:08:42;;;;;;;1.03;0.50;;;;;;;21.12;31.05;100776.97;5054582;28;20173;-70
2021/05/24 11:11:24;;;;;;;1.30;0.50;;;;;;;19.86;33.50;100765.53;5036559;28;20254;-72
2021/05/24 11:14:00;;;;;;;1.43;0.50;;;;;;;19.38;34.71;100757.34;5036609;28;20249;-71
2021/05/24 11:16:26;;;;;;;1.47;0.70;;;;;;;20.86;32.45;100763.25;5034987;28;20156;-71
2021/05/24 11:19:03;;;;;;;0.87;0.53;;;;;;;21.18;31.28;100764.63;5015795;28;20182;-71
2021/05/24 11:21:28;;;;;;;1.37;0.60;;;;;;;22.19;30.09;100759.97;5032335;28;20160;-71
2021/05/24 11:26:42;;;;;;;1.90;0.60;;;;;;;21.04;31.89;100743.44;5032807;28;20629;-71
2021/05/24 11:29:08;;;;;;;5.47;0.70;;;;;;;21.07;32.49;100743.16;5033251;28;20207;-71
2021/05/24 11:31:33;;;;;;;0.43;0.43;;;;;;;19.78;33.72;100737.47;5032308;28;20192;-71